This is the latest recevied weather packets stored in our database for station/object KN6KS. If no packets are shown the sender has not sent any weather packets the latest 10 day(s).
| Time | Temp. | Humidity | Pressure | Rain* | Wind** | Luminosity | Snow |
|---|---|---|---|---|---|---|---|
| 1777928988 | 16.67° C | 48% | 1012.5 hPa | 0 mm | - | 835 W/m² | - |
| 1777928684 | 16.11° C | 49% | 1012.4 hPa | 0 mm | - | 741 W/m² | - |
| 1777928381 | 15.56° C | 50% | 1012.4 hPa | 0 mm | - | 517 W/m² | - |
| 1777928079 | 15.56° C | 51% | 1012.6 hPa | 0 mm | - | 849 W/m² | - |
| 1777927777 | 15.56° C | 52% | 1012.7 hPa | 0 mm | - | 841 W/m² | - |
| 1777927475 | 15.56° C | 51% | 1012.6 hPa | 0 mm | - | 277 W/m² | - |
| 1777927174 | 15.56° C | 52% | 1012.8 hPa | 0 mm | - | 609 W/m² | - |
| 1777926871 | 15.56° C | 51% | 1012.9 hPa | 0 mm | - | 229 W/m² | - |
| 1777926567 | 15.56° C | 51% | 1012.7 hPa | 0 mm | - | 284 W/m² | - |
| 1777926264 | 15.56° C | 51% | 1012.8 hPa | 0 mm | - | 845 W/m² | - |
| 1777925960 | 15° C | 52% | 1012.8 hPa | 0 mm | - | 265 W/m² | - |
| 1777925658 | 15° C | 52% | 1012.7 hPa | 0 mm | - | 232 W/m² | - |
| 1777925355 | 15° C | 51% | 1012.8 hPa | 0 mm | - | 894 W/m² | - |
| 1777925052 | 15.56° C | 50% | 1012.5 hPa | 0 mm | - | 285 W/m² | - |
| 1777924749 | 15.56° C | 46% | 1012.6 hPa | 0 mm | - | 556 W/m² | - |
| 1777924444 | 15.56° C | 46% | 1012.7 hPa | 0 mm | - | 795 W/m² | - |
| 1777924141 | 16.11° C | 44% | 1012.9 hPa | 0 mm | - | 444 W/m² | - |
| 1777923837 | 16.11° C | 44% | 1012.8 hPa | 0 mm | - | 746 W/m² | - |
| 1777923533 | 15.56° C | 45% | 1012.6 hPa | 0 mm | - | 292 W/m² | - |
| 1777923230 | 16.11° C | 46% | 1012.9 hPa | 0 mm | - | 773 W/m² | - |
| 1777922929 | 15° C | 47% | 1012.9 hPa | 0 mm | - | 826 W/m² | - |
| 1777922626 | 15.56° C | 48% | 1012.8 hPa | 0 mm | - | 731 W/m² | - |
| 1777922325 | 15° C | 51% | 1012.8 hPa | 0 mm | - | 836 W/m² | - |
| 1777922022 | 15° C | 51% | 1012.9 hPa | 0 mm | - | 863 W/m² | - |
| 1777921718 | 15° C | 48% | 1013.1 hPa | 0 mm | - | 842 W/m² | - |
* Rain latest hour (hover to see other rain measurements)
** Current wind speed in m/s (hover to see current wind gust speed)